Time;durP1;ratioP1;P1;durP2;ratioP2;P2;SDS_P1;SDS_P2;PMS_P1;PMS_P2;Temp;Humidity;BMP_temperature;BMP_pressure;BME280_temperature;BME280_humidity;BME280_pressure;Samples;Min_cycle;Max_cycle;Signal;HPM_P1;HPM_P2
2021/12/31 00:00:26;;;;;;;10.32;2.72;;;11.00;99.90;;;;;;5001753;28;20034;-50
2021/12/31 00:02:51;;;;;;;4.07;2.00;;;11.00;99.90;;;;;;5002479;28;20449;-51
2021/12/31 00:05:17;;;;;;;4.50;1.27;;;11.00;99.90;;;;;;5000356;28;20026;-51
2021/12/31 00:07:45;;;;;;;4.10;1.83;;;11.00;99.90;;;;;;5002106;28;20026;-51
2021/12/31 00:10:10;;;;;;;3.13;1.55;;;11.00;99.90;;;;;;5002903;28;20034;-51
2021/12/31 00:12:36;;;;;;;2.70;1.30;;;11.00;99.90;;;;;;4999095;28;20481;-51
2021/12/31 00:15:03;;;;;;;1.20;1.10;;;11.00;99.90;;;;;;4999216;28;20036;-49
2021/12/31 00:17:29;;;;;;;2.22;1.27;;;11.00;99.90;;;;;;5002756;28;20493;-48
2021/12/31 00:20:05;;;;;;;0.80;0.80;;;11.00;99.90;;;;;;5001172;28;20093;-49
2021/12/31 00:25:15;;;;;;;1.05;1.00;;;11.00;99.90;;;;;;5000479;28;20061;-49
2021/12/31 00:27:41;;;;;;;1.70;1.13;;;11.00;99.90;;;;;;5002301;28;20061;-49
2021/12/31 00:30:07;;;;;;;7.30;1.15;;;11.00;99.90;;;;;;5002440;28;20022;-49
2021/12/31 00:32:33;;;;;;;1.08;0.98;;;11.00;99.90;;;;;;4999132;28;20532;-48
2021/12/31 00:34:59;;;;;;;1.05;0.88;;;11.00;99.90;;;;;;5001366;28;20026;-49
2021/12/31 00:37:35;;;;;;;9.25;1.00;;;11.00;99.90;;;;;;5002688;28;20352;-48
2021/12/31 00:40:04;;;;;;;1.10;0.80;;;11.00;99.90;;;;;;5001822;28;20030;-48
2021/12/31 00:42:29;;;;;;;1.15;0.98;;;11.00;99.90;;;;;;4998835;28;20108;-49
2021/12/31 00:44:55;;;;;;;1.27;0.85;;;11.00;99.90;;;;;;5003137;28;20441;-49
2021/12/31 00:47:21;;;;;;;2.88;0.98;;;11.00;99.90;;;;;;5000172;28;20033;-49
2021/12/31 00:49:46;;;;;;;1.85;1.20;;;11.00;99.90;;;;;;5002561;28;20022;-49
2021/12/31 00:52:13;;;;;;;2.85;1.10;;;11.00;99.90;;;;;;4999508;28;20042;-49
2021/12/31 00:54:39;;;;;;;1.75;1.42;;;11.00;99.90;;;;;;4999923;28;20030;-49
2021/12/31 00:57:05;;;;;;;1.80;1.20;;;11.00;99.90;;;;;;5002358;28;20030;-48
2021/12/31 00:59:32;;;;;;;1.98;0.90;;;11.00;99.90;;;;;;5001378;28;20462;-48
2021/12/31 01:02:03;;;;;;;1.08;0.90;;;11.00;99.90;;;;;;5000855;28;20045;-49
2021/12/31 01:04:30;;;;;;;2.28;1.00;;;11.00;99.90;;;;;;5000724;28;20097;-49
2021/12/31 01:06:57;;;;;;;2.70;1.23;;;11.00;99.90;;;;;;4999369;28;20549;-49
2021/12/31 01:09:23;;;;;;;5.07;1.42;;;11.00;99.90;;;;;;5002390;28;20123;-48
2021/12/31 01:11:49;;;;;;;1.33;1.00;;;11.00;99.90;;;;;;5000468;28;20112;-49
2021/12/31 01:14:30;;;;;;;1.20;1.10;;;11.00;99.90;;;;;;5003140;28;20030;-49
2021/12/31 01:17:06;;;;;;;1.50;1.10;;;11.00;99.90;;;;;;5002411;28;20084;-49
2021/12/31 01:22:10;;;;;;;1.52;1.20;;;11.00;99.90;;;;;;4999916;28;20084;-48
2021/12/31 01:24:36;;;;;;;1.40;0.80;;;11.00;99.90;;;;;;5002644;28;20034;-49
2021/12/31 01:27:02;;;;;;;2.63;1.27;;;11.00;99.90;;;;;;5002126;28;20037;-49
2021/12/31 01:29:27;;;;;;;1.45;1.27;;;10.90;99.90;;;;;;5001727;28;20523;-48
2021/12/31 01:31:55;;;;;;;2.47;1.08;;;11.00;99.90;;;;;;4997728;28;20030;-49
2021/12/31 01:34:24;;;;;;;1.50;0.90;;;10.90;99.90;;;;;;4999694;28;20121;-49
2021/12/31 01:36:50;;;;;;;0.70;0.70;;;10.90;99.90;;;;;;5000184;28;20158;-49
2021/12/31 01:39:16;;;;;;;0.70;0.70;;;10.90;99.90;;;;;;5002090;28;20037;-49
2021/12/31 01:41:41;;;;;;;1.13;1.00;;;10.90;99.90;;;;;;4998125;28;20026;-48
2021/12/31 01:44:08;;;;;;;1.17;0.95;;;10.90;99.90;;;;;;5000835;28;20169;-49
2021/12/31 01:46:40;;;;;;;2.38;0.98;;;10.90;99.90;;;;;;5001586;28;20033;-49
2021/12/31 01:49:18;;;;;;;1.83;1.17;;;10.90;99.90;;;;;;5001571;28;20168;-49
2021/12/31 01:51:44;;;;;;;1.23;1.00;;;10.90;99.90;;;;;;4999925;28;20574;-49
2021/12/31 01:54:09;;;;;;;1.60;0.80;;;10.90;99.90;;;;;;4999411;28;20096;-48
2021/12/31 01:56:36;;;;;;;1.25;0.98;;;10.90;99.90;;;;;;5001395;28;20037;-49
2021/12/31 01:59:04;;;;;;;3.90;1.10;;;10.90;99.90;;;;;;5001309;28;20050;-49
2021/12/31 02:01:30;;;;;;;1.55;0.80;;;10.90;99.90;;;;;;4997594;28;20042;-49
2021/12/31 02:03:56;;;;;;;0.60;0.60;;;10.90;99.90;;;;;;5003853;28;20034;-50
2021/12/31 02:06:22;;;;;;;1.60;0.80;;;10.90;99.90;;;;;;5002997;28;20169;-51
2021/12/31 02:08:48;;;;;;;1.50;1.00;;;10.90;99.90;;;;;;5005047;28;20034;-50
2021/12/31 02:11:18;;;;;;;1.00;0.90;;;10.90;99.90;;;;;;5003130;28;20034;-50
2021/12/31 02:13:44;;;;;;;1.87;0.97;;;10.90;99.90;;;;;;5005097;28;20458;-50
2021/12/31 02:16:09;;;;;;;0.90;0.88;;;10.90;99.90;;;;;;5001954;28;20069;-50
2021/12/31 02:18:35;;;;;;;0.88;0.70;;;10.90;99.90;;;;;;5004348;28;20164;-50
2021/12/31 02:21:03;;;;;;;1.85;0.90;;;10.90;99.90;;;;;;5002811;28;20026;-51
2021/12/31 02:23:38;;;;;;;1.85;0.93;;;10.90;99.90;;;;;;5002938;28;20040;-51
2021/12/31 02:26:04;;;;;;;1.98;1.35;;;10.80;99.90;;;;;;5005251;28;20034;-50
2021/12/31 02:28:29;;;;;;;0.80;0.80;;;10.80;99.90;;;;;;5004390;28;20125;-51
2021/12/31 02:31:00;;;;;;;1.85;0.85;;;10.80;99.90;;;;;;5004493;28;20033;-50
2021/12/31 02:33:26;;;;;;;1.17;0.90;;;10.80;99.90;;;;;;5002465;28;20129;-51
2021/12/31 02:35:52;;;;;;;1.50;1.00;;;10.80;99.90;;;;;;5002856;28;20438;-50
2021/12/31 02:38:18;;;;;;;2.45;0.80;;;10.80;99.90;;;;;;5004459;28;20030;-51
2021/12/31 02:40:44;;;;;;;3.83;0.93;;;10.80;99.90;;;;;;5003430;28;20097;-50
2021/12/31 02:43:10;;;;;;;0.77;0.77;;;10.80;99.90;;;;;;5005610;28;20270;-50
2021/12/31 02:45:37;;;;;;;2.78;1.05;;;10.80;99.90;;;;;;5000600;28;20018;-51
2021/12/31 02:48:05;;;;;;;1.73;0.65;;;10.80;99.90;;;;;;5003711;28;20117;-50
2021/12/31 02:50:34;;;;;;;0.60;0.60;;;10.80;99.90;;;;;;5001909;28;20409;-50
2021/12/31 02:53:06;;;;;;;0.93;0.70;;;10.80;99.90;;;;;;5001658;28;20046;-51
2021/12/31 02:55:34;;;;;;;2.30;0.90;;;10.80;99.90;;;;;;5004205;28;20030;-51
2021/12/31 02:58:01;;;;;;;1.30;0.85;;;10.70;99.90;;;;;;5003013;28;20110;-50
2021/12/31 03:00:27;;;;;;;0.98;0.80;;;10.70;99.90;;;;;;5005977;28;20068;-50
2021/12/31 03:02:54;;;;;;;3.83;0.77;;;10.70;99.90;;;;;;5000443;28;20046;-50
2021/12/31 03:05:22;;;;;;;0.95;0.82;;;10.70;99.90;;;;;;5002006;28;20112;-51
2021/12/31 03:07:49;;;;;;;0.88;0.70;;;10.70;99.90;;;;;;5002864;28;20034;-50
2021/12/31 03:10:17;;;;;;;1.70;1.05;;;10.80;99.90;;;;;;5003507;28;20022;-51
2021/12/31 03:12:43;;;;;;;1.25;0.80;;;10.70;99.90;;;;;;5002821;28;20037;-51
2021/12/31 03:15:10;;;;;;;5.65;0.95;;;10.70;99.90;;;;;;5001503;28;20030;-51
2021/12/31 03:17:37;;;;;;;1.00;0.90;;;10.70;99.90;;;;;;5000619;28;20088;-50
2021/12/31 03:20:11;;;;;;;1.83;0.80;;;10.70;99.90;;;;;;5001691;28;20030;-50
2021/12/31 03:22:38;;;;;;;1.10;0.90;;;10.70;99.90;;;;;;5000867;28;20481;-50
2021/12/31 03:25:05;;;;;;;1.40;1.08;;;10.70;99.90;;;;;;5004621;28;20031;-51
2021/12/31 03:27:32;;;;;;;1.00;0.73;;;10.70;99.90;;;;;;5002508;28;20061;-50
2021/12/31 03:29:58;;;;;;;5.55;1.13;;;10.70;99.90;;;;;;5004030;28;20030;-50
2021/12/31 03:32:23;;;;;;;0.88;0.80;;;10.70;99.90;;;;;;5000061;28;20030;-48
2021/12/31 03:34:49;;;;;;;1.95;0.90;;;10.70;99.90;;;;;;4996795;28;20041;-49
2021/12/31 03:37:15;;;;;;;0.70;0.60;;;10.70;99.90;;;;;;5004497;28;20072;-49
2021/12/31 03:39:40;;;;;;;1.13;0.80;;;10.70;99.90;;;;;;5006066;28;20451;-49
2021/12/31 03:42:06;;;;;;;0.93;0.80;;;10.60;99.90;;;;;;5001461;28;20045;-48
2021/12/31 03:44:32;;;;;;;2.35;0.70;;;10.60;99.90;;;;;;5000679;28;20022;-49
2021/12/31 03:46:57;;;;;;;1.00;0.90;;;10.60;99.90;;;;;;5000398;28;20038;-49
2021/12/31 03:49:23;;;;;;;1.60;0.93;;;10.60;99.90;;;;;;5002341;28;20121;-48
2021/12/31 03:51:48;;;;;;;2.88;0.70;;;10.70;99.90;;;;;;5003152;28;20026;-49
2021/12/31 03:54:14;;;;;;;3.25;0.80;;;10.60;99.90;;;;;;5001225;28;20053;-48
2021/12/31 03:56:40;;;;;;;9.23;0.90;;;10.60;99.90;;;;;;5001347;28;20038;-48
2021/12/31 03:59:06;;;;;;;2.92;0.82;;;10.60;99.90;;;;;;5003185;28;20014;-48
2021/12/31 04:01:31;;;;;;;1.52;1.13;;;10.60;99.90;;;;;;4999331;28;20045;-48
2021/12/31 04:03:57;;;;;;;5.07;0.70;;;10.60;99.90;;;;;;5003934;28;20445;-48
2021/12/31 04:06:23;;;;;;;1.88;0.68;;;10.60;99.90;;;;;;5000703;28;20125;-48
2021/12/31 04:08:50;;;;;;;0.88;0.70;;;10.60;99.90;;;;;;5002041;28;20025;-49
2021/12/31 04:11:16;;;;;;;1.23;0.82;;;10.60;99.90;;;;;;5000308;28;20018;-48
2021/12/31 04:13:42;;;;;;;0.60;0.60;;;10.60;99.90;;;;;;5000766;28;20030;-48
2021/12/31 04:16:08;;;;;;;6.25;0.95;;;10.50;99.90;;;;;;5001437;28;20037;-48
2021/12/31 04:18:33;;;;;;;0.65;0.65;;;10.50;99.90;;;;;;5000125;28;20406;-49
2021/12/31 04:21:00;;;;;;;2.67;1.05;;;10.50;99.90;;;;;;5002269;28;20108;-48
2021/12/31 04:23:32;;;;;;;1.20;0.80;;;10.50;99.90;;;;;;5001946;28;20042;-49
2021/12/31 04:25:59;;;;;;;3.75;1.00;;;10.60;99.90;;;;;;5000460;28;20037;-48
2021/12/31 04:28:27;;;;;;;1.92;1.00;;;10.50;99.90;;;;;;5000889;28;20028;-49
2021/12/31 04:30:53;;;;;;;3.13;1.20;;;10.50;99.90;;;;;;5002227;28;20364;-48
2021/12/31 04:33:18;;;;;;;0.60;0.60;;;10.50;99.90;;;;;;5000765;28;20446;-49
2021/12/31 04:35:44;;;;;;;1.17;0.60;;;10.50;99.90;;;;;;5002475;28;20026;-48
2021/12/31 04:38:10;;;;;;;0.77;0.70;;;10.50;99.90;;;;;;5000251;28;20104;-48
2021/12/31 04:40:36;;;;;;;0.68;0.68;;;10.50;99.90;;;;;;5001773;28;20022;-49
2021/12/31 04:43:01;;;;;;;1.27;0.98;;;10.50;99.90;;;;;;5001300;28;20057;-48
2021/12/31 04:45:27;;;;;;;0.80;0.80;;;10.50;99.90;;;;;;5000115;28;20074;-49
2021/12/31 04:47:53;;;;;;;1.15;1.08;;;10.50;99.90;;;;;;5000927;28;20116;-48
2021/12/31 04:50:18;;;;;;;2.45;1.02;;;10.50;99.90;;;;;;4998618;28;20030;-48
2021/12/31 04:52:44;;;;;;;9.40;5.75;;;10.50;99.90;;;;;;5001482;28;20433;-49
2021/12/31 04:55:11;;;;;;;2.90;1.00;;;10.40;99.90;;;;;;5001137;28;20435;-48
2021/12/31 04:57:37;;;;;;;0.95;0.90;;;10.50;99.90;;;;;;4999202;28;20053;-48
2021/12/31 05:00:05;;;;;;;4.40;1.15;;;10.40;99.90;;;;;;4999631;28;20453;-49
2021/12/31 05:02:30;;;;;;;0.85;0.60;;;10.50;99.90;;;;;;5000135;28;20124;-48
2021/12/31 05:04:56;;;;;;;0.55;0.55;;;10.50;99.90;;;;;;4999697;28;20473;-48
2021/12/31 05:07:21;;;;;;;1.63;0.85;;;10.50;99.90;;;;;;5004515;28;20461;-48
2021/12/31 05:09:47;;;;;;;1.05;0.95;;;10.40;99.90;;;;;;5000318;28;20108;-49
2021/12/31 05:12:19;;;;;;;0.68;0.65;;;10.40;99.90;;;;;;5001393;28;20085;-48
2021/12/31 05:14:45;;;;;;;1.50;0.80;;;10.40;99.90;;;;;;5001123;28;20269;-48
2021/12/31 05:17:11;;;;;;;0.68;0.68;;;10.40;99.90;;;;;;4998717;28;20122;-48
2021/12/31 05:19:37;;;;;;;0.60;0.60;;;10.40;99.90;;;;;;5003255;28;20027;-48
2021/12/31 05:22:03;;;;;;;1.48;1.05;;;10.40;99.90;;;;;;4999917;28;20104;-48
2021/12/31 05:24:28;;;;;;;1.23;1.13;;;10.40;99.90;;;;;;5001890;28;20129;-48
2021/12/31 05:26:54;;;;;;;0.52;0.50;;;10.40;99.90;;;;;;5000574;28;20029;-48
2021/12/31 05:29:19;;;;;;;5.68;0.85;;;10.40;99.90;;;;;;5002848;28;20105;-49
2021/12/31 05:31:45;;;;;;;1.85;1.30;;;10.40;99.90;;;;;;4999792;28;20105;-48
2021/12/31 05:34:10;;;;;;;3.00;1.20;;;10.40;99.90;;;;;;4998507;28;20034;-49
2021/12/31 05:36:36;;;;;;;1.92;1.23;;;10.40;99.90;;;;;;5002589;28;20363;-48
2021/12/31 05:39:02;;;;;;;1.10;0.82;;;10.40;99.90;;;;;;5006444;28;20058;-48
2021/12/31 05:41:29;;;;;;;0.70;0.70;;;10.40;99.90;;;;;;5004096;28;20034;-49
2021/12/31 05:43:54;;;;;;;3.50;1.15;;;10.40;99.90;;;;;;5005882;28;20064;-48
2021/12/31 05:46:20;;;;;;;3.22;1.08;;;10.40;99.90;;;;;;5003620;28;20049;-48
2021/12/31 05:48:45;;;;;;;1.40;1.30;;;10.40;99.90;;;;;;5003786;28;20453;-49
2021/12/31 05:51:11;;;;;;;5.38;1.00;;;10.40;99.90;;;;;;5000996;28;20018;-49
2021/12/31 05:53:37;;;;;;;3.25;1.13;;;10.40;99.90;;;;;;5004637;28;20026;-48
2021/12/31 05:56:02;;;;;;;1.75;1.10;;;10.40;99.90;;;;;;5004464;28;20329;-48
2021/12/31 05:58:28;;;;;;;1.50;0.88;;;10.40;99.90;;;;;;5002497;28;20018;-48
2021/12/31 06:00:53;;;;;;;1.65;1.13;;;10.40;99.90;;;;;;5007827;28;20029;-49
2021/12/31 06:03:19;;;;;;;3.47;0.98;;;10.40;99.90;;;;;;5002472;28;20449;-48
2021/12/31 06:05:45;;;;;;;3.05;1.20;;;10.40;99.90;;;;;;5013124;28;20018;-49
2021/12/31 06:08:10;;;;;;;6.60;1.38;;;10.40;99.90;;;;;;5012344;28;20476;-48
2021/12/31 06:10:41;;;;;;;1.02;0.93;;;10.40;99.90;;;;;;5011861;28;20018;-48
2021/12/31 06:13:07;;;;;;;1.35;1.10;;;10.40;99.90;;;;;;5007893;28;20026;-48
2021/12/31 06:15:34;;;;;;;1.40;1.00;;;10.40;99.90;;;;;;5003925;28;20040;-49
2021/12/31 06:17:59;;;;;;;2.15;0.98;;;10.40;99.90;;;;;;5001312;28;20543;-48
2021/12/31 06:20:28;;;;;;;1.77;0.93;;;10.40;99.90;;;;;;5005051;28;20057;-48
2021/12/31 06:22:57;;;;;;;1.35;1.00;;;10.40;99.90;;;;;;5006557;28;20045;-48
2021/12/31 06:25:24;;;;;;;2.05;1.25;;;10.40;99.90;;;;;;5001859;28;20361;-48
2021/12/31 06:27:49;;;;;;;1.35;1.15;;;10.40;99.90;;;;;;5003715;28;20042;-49
2021/12/31 06:30:15;;;;;;;0.95;0.85;;;10.40;99.90;;;;;;5005339;28;20026;-48
2021/12/31 06:32:41;;;;;;;1.42;1.17;;;10.40;99.90;;;;;;4999944;28;20034;-48
2021/12/31 06:35:07;;;;;;;1.25;0.98;;;10.40;99.90;;;;;;5003618;28;20445;-48
2021/12/31 06:37:32;;;;;;;1.67;1.00;;;10.40;99.90;;;;;;5001940;28;20525;-49
2021/12/31 06:40:03;;;;;;;0.88;0.88;;;10.40;99.90;;;;;;5002746;28;20077;-49
2021/12/31 06:42:29;;;;;;;2.72;0.82;;;10.40;99.90;;;;;;5003147;28;20117;-49
2021/12/31 06:44:54;;;;;;;0.90;0.90;;;10.40;99.90;;;;;;5005303;28;20109;-48
2021/12/31 06:47:20;;;;;;;1.15;0.90;;;10.40;99.90;;;;;;5001610;28;20038;-48
2021/12/31 06:49:45;;;;;;;1.48;1.08;;;10.40;99.90;;;;;;5003297;28;20085;-48
2021/12/31 06:52:11;;;;;;;2.33;1.10;;;10.40;99.90;;;;;;5003677;28;20022;-48
2021/12/31 06:54:37;;;;;;;1.08;0.95;;;10.40;99.90;;;;;;5000607;28;20030;-48
2021/12/31 06:57:03;;;;;;;1.50;1.10;;;10.40;99.90;;;;;;5001783;28;20061;-48
2021/12/31 06:59:29;;;;;;;1.52;1.05;;;10.40;99.90;;;;;;5003682;28;20026;-49
2021/12/31 07:01:57;;;;;;;0.80;0.80;;;10.40;99.90;;;;;;5002778;28;20042;-49
2021/12/31 07:04:23;;;;;;;1.98;1.02;;;10.40;99.90;;;;;;5004739;28;20072;-48
2021/12/31 07:06:49;;;;;;;1.02;0.95;;;10.40;99.90;;;;;;5003504;28;20418;-48
2021/12/31 07:09:14;;;;;;;1.95;0.85;;;10.40;99.90;;;;;;5003460;28;20026;-48
2021/12/31 07:11:40;;;;;;;3.28;1.70;;;10.40;99.90;;;;;;5001022;28;20041;-49
2021/12/31 07:14:06;;;;;;;6.55;1.63;;;10.40;99.90;;;;;;5003146;28;20022;-49
2021/12/31 07:16:31;;;;;;;2.03;1.25;;;10.40;99.90;;;;;;5000386;28;20038;-48
2021/12/31 07:18:57;;;;;;;6.20;1.50;;;10.40;99.90;;;;;;5001419;28;20022;-49
2021/12/31 07:21:23;;;;;;;3.00;1.38;;;10.40;99.90;;;;;;5002280;28;20090;-48
2021/12/31 07:23:48;;;;;;;4.13;1.80;;;10.40;99.90;;;;;;5000818;28;20026;-49
2021/12/31 07:26:14;;;;;;;2.58;1.30;;;10.40;99.90;;;;;;5007012;28;20025;-49
2021/12/31 07:28:39;;;;;;;2.42;1.38;;;10.40;99.90;;;;;;5002702;28;20029;-48
2021/12/31 07:31:06;;;;;;;1.80;1.27;;;10.40;99.90;;;;;;5001038;28;20022;-48
2021/12/31 07:33:32;;;;;;;2.50;1.33;;;10.50;99.90;;;;;;5001007;28;20680;-49
2021/12/31 07:36:00;;;;;;;1.40;1.27;;;10.40;99.90;;;;;;5002762;28;20029;-49
2021/12/31 07:38:35;;;;;;;1.33;1.02;;;10.50;99.90;;;;;;5003101;28;20354;-48
2021/12/31 07:41:01;;;;;;;4.97;1.00;;;10.40;99.90;;;;;;5003467;28;20030;-48
2021/12/31 07:43:27;;;;;;;2.40;1.83;;;10.40;99.90;;;;;;5000349;28;20069;-48
2021/12/31 07:45:53;;;;;;;1.95;1.40;;;10.40;99.90;;;;;;5001977;28;20358;-48
2021/12/31 07:48:20;;;;;;;5.07;1.95;;;10.50;99.90;;;;;;5006898;28;20033;-48
2021/12/31 07:50:46;;;;;;;4.28;1.55;;;10.40;99.90;;;;;;5000835;28;20030;-48
2021/12/31 07:53:12;;;;;;;3.78;1.73;;;10.40;99.90;;;;;;5000412;28;20034;-48
2021/12/31 07:55:38;;;;;;;3.58;1.70;;;10.40;99.90;;;;;;5003203;28;20025;-49
2021/12/31 07:58:07;;;;;;;5.68;2.10;;;10.40;99.90;;;;;;4999293;28;20243;-49
2021/12/31 08:00:34;;;;;;;2.70;2.22;;;10.50;99.90;;;;;;5000555;28;20036;-49
2021/12/31 08:03:00;;;;;;;2.50;1.90;;;10.40;99.90;;;;;;5009247;28;20033;-48
2021/12/31 08:05:27;;;;;;;3.20;2.20;;;10.40;99.90;;;;;;5007326;28;20474;-49
2021/12/31 08:07:53;;;;;;;2.63;1.73;;;10.50;99.90;;;;;;5010767;28;20036;-49
2021/12/31 08:10:19;;;;;;;3.30;1.92;;;10.50;99.90;;;;;;5011006;28;20033;-48
2021/12/31 08:12:45;;;;;;;3.33;2.40;;;10.50;99.90;;;;;;5005230;28;20113;-48
2021/12/31 08:15:11;;;;;;;2.95;1.92;;;10.40;99.90;;;;;;5009065;28;20101;-49
2021/12/31 08:17:37;;;;;;;3.63;2.13;;;10.50;99.90;;;;;;5006584;28;20026;-48
2021/12/31 08:20:03;;;;;;;3.03;1.77;;;10.50;99.90;;;;;;5008660;28;20109;-48
2021/12/31 08:22:29;;;;;;;2.83;1.80;;;10.50;99.90;;;;;;4999551;28;20045;-49
2021/12/31 08:24:54;;;;;;;3.40;1.73;;;10.50;99.90;;;;;;5001649;28;20026;-49
2021/12/31 08:27:20;;;;;;;9.68;1.95;;;10.50;99.90;;;;;;5002432;28;20026;-49
2021/12/31 08:29:45;;;;;;;5.25;1.63;;;10.50;99.90;;;;;;5003398;28;20030;-49
2021/12/31 08:32:11;;;;;;;3.83;2.08;;;10.50;99.90;;;;;;5001669;28;20022;-49
2021/12/31 08:34:37;;;;;;;3.00;2.00;;;10.50;99.90;;;;;;5001889;28;20450;-49
2021/12/31 08:37:03;;;;;;;6.38;3.05;;;10.50;99.90;;;;;;4999876;28;20458;-48
2021/12/31 08:39:28;;;;;;;5.75;3.03;;;10.40;99.90;;;;;;5001285;28;20105;-49
2021/12/31 08:41:54;;;;;;;6.57;2.60;;;10.40;99.90;;;;;;4998053;28;20339;-49
2021/12/31 08:44:20;;;;;;;4.95;2.95;;;10.40;99.90;;;;;;5004099;28;20052;-49
2021/12/31 08:46:46;;;;;;;5.80;3.08;;;10.40;99.90;;;;;;5009573;28;20018;-49
2021/12/31 08:49:12;;;;;;;6.88;3.78;;;10.50;99.90;;;;;;5006228;28;20034;-49
2021/12/31 08:51:38;;;;;;;6.28;3.50;;;10.50;99.90;;;;;;5004287;28;20037;-49
2021/12/31 08:54:04;;;;;;;5.57;3.08;;;10.50;99.90;;;;;;5004620;28;20058;-49
2021/12/31 08:56:30;;;;;;;6.35;2.78;;;10.40;99.90;;;;;;5002803;28;20042;-49
2021/12/31 08:58:55;;;;;;;6.65;3.90;;;10.50;99.90;;;;;;5005425;28;20060;-49
2021/12/31 09:01:21;;;;;;;6.70;3.03;;;10.40;99.90;;;;;;5002077;28;20150;-49
2021/12/31 09:03:47;;;;;;;5.97;3.22;;;10.50;99.90;;;;;;5004768;28;20042;-49
2021/12/31 09:06:13;;;;;;;5.82;2.97;;;10.50;99.90;;;;;;5003557;28;20057;-49
2021/12/31 09:08:39;;;;;;;5.90;3.70;;;10.50;99.90;;;;;;5003860;28;20034;-49
2021/12/31 09:11:05;;;;;;;5.57;2.85;;;10.50;99.90;;;;;;5006463;28;20084;-49
2021/12/31 09:13:32;;;;;;;6.40;3.30;;;10.50;99.90;;;;;;5005126;28;20072;-49
2021/12/31 09:15:58;;;;;;;7.22;4.03;;;10.50;99.90;;;;;;5010153;28;20517;-49
2021/12/31 09:18:23;;;;;;;6.28;3.58;;;10.50;99.90;;;;;;5007548;28;20117;-49
2021/12/31 09:20:49;;;;;;;4.22;2.97;;;10.50;99.90;;;;;;5006695;28;20034;-49
2021/12/31 09:23:15;;;;;;;5.40;3.22;;;10.50;99.90;;;;;;5005962;28;20038;-49
2021/12/31 09:25:43;;;;;;;5.75;3.50;;;10.50;99.90;;;;;;5007188;28;20061;-50
2021/12/31 09:28:08;;;;;;;6.47;3.15;;;10.50;99.90;;;;;;5007348;28;20129;-50
2021/12/31 09:30:34;;;;;;;5.70;3.08;;;10.50;99.90;;;;;;5006818;28;20133;-50
2021/12/31 09:33:00;;;;;;;7.35;3.67;;;10.50;99.90;;;;;;5004840;28;20022;-49
2021/12/31 09:35:25;;;;;;;5.47;3.28;;;10.50;99.90;;;;;;5007397;28;20030;-49
2021/12/31 09:37:51;;;;;;;6.25;3.70;;;10.60;99.90;;;;;;5004405;28;20118;-50
2021/12/31 09:40:18;;;;;;;7.45;3.90;;;10.50;99.90;;;;;;5004830;28;20041;-50
2021/12/31 09:43:04;;;;;;;6.63;3.20;;;10.60;99.90;;;;;;5006350;28;20097;-50
2021/12/31 09:45:30;;;;;;;28.35;3.53;;;10.50;99.90;;;;;;5009102;28;20342;-50
2021/12/31 09:47:59;;;;;;;5.45;2.78;;;10.60;99.90;;;;;;5007084;28;20106;-50
2021/12/31 09:50:27;;;;;;;4.97;3.60;;;10.60;99.90;;;;;;5003218;28;20088;-50
2021/12/31 09:52:54;;;;;;;5.90;3.10;;;10.60;99.90;;;;;;5004634;28;20440;-50
2021/12/31 09:55:51;;;;;;;4.95;3.10;;;10.60;99.90;;;;;;5005735;28;20048;-50
2021/12/31 09:58:19;;;;;;;5.47;3.17;;;10.60;99.90;;;;;;5004550;28;20029;-50
2021/12/31 10:00:49;;;;;;;11.27;3.42;;;10.60;99.90;;;;;;5009100;28;20032;-50
2021/12/31 10:03:17;;;;;;;4.88;3.08;;;10.60;99.90;;;;;;5010776;28;20030;-50
2021/12/31 10:05:44;;;;;;;5.13;3.53;;;10.60;99.90;;;;;;5007511;28;20030;-50
2021/12/31 10:08:23;;;;;;;6.97;3.03;;;10.60;99.90;;;;;;5007815;28;20520;-50
2021/12/31 10:11:02;;;;;;;3.20;2.57;;;10.60;99.90;;;;;;5010770;28;20033;-50
2021/12/31 10:13:28;;;;;;;5.50;3.28;;;10.60;99.90;;;;;;5012081;28;20318;-50
2021/12/31 10:15:55;;;;;;;7.22;2.90;;;10.60;99.90;;;;;;5011138;28;20095;-50
2021/12/31 10:18:38;;;;;;;4.40;2.85;;;10.70;99.90;;;;;;5007791;28;20026;-50
2021/12/31 10:21:05;;;;;;;4.60;2.90;;;10.70;99.90;;;;;;5008396;28;20029;-50
2021/12/31 10:23:36;;;;;;;4.65;2.70;;;10.70;99.90;;;;;;5007738;28;20053;-50
2021/12/31 10:26:13;;;;;;;11.73;1.40;;;10.70;99.90;;;;;;5011278;28;20061;-50
2021/12/31 10:28:59;;;;;;;4.63;1.77;;;10.70;99.90;;;;;;5012324;28;20026;-50
2021/12/31 10:31:27;;;;;;;6.32;2.90;;;10.70;99.90;;;;;;5008841;28;20038;-49
2021/12/31 10:33:53;;;;;;;1.35;1.25;;;10.70;99.90;;;;;;5010843;28;20067;-50
2021/12/31 10:36:51;;;;;;;5.95;3.53;;;10.80;99.90;;;;;;5009753;28;20740;-50
2021/12/31 10:39:20;;;;;;;4.13;1.52;;;10.80;99.90;;;;;;5000952;28;20062;-50
2021/12/31 10:42:00;;;;;;;6.28;2.90;;;10.80;99.90;;;;;;5005656;28;20032;-50
2021/12/31 10:44:48;;;;;;;6.50;2.55;;;10.80;99.90;;;;;;5007545;28;20060;-50
2021/12/31 10:47:34;;;;;;;5.88;3.05;;;10.80;99.90;;;;;;5002815;28;20033;-50
2021/12/31 10:50:32;;;;;;;0.90;0.90;;;10.80;99.90;;;;;;5004218;28;20042;-49
2021/12/31 10:53:12;;;;;;;3.38;2.28;;;10.90;99.90;;;;;;4912390;29;20035;-50
2021/12/31 10:55:40;;;;;;;1.30;0.95;;;10.90;99.90;;;;;;4911827;29;20483;-50
2021/12/31 10:58:10;;;;;;;5.40;3.22;;;10.90;99.90;;;;;;4912696;29;20629;-50
2021/12/31 11:00:42;;;;;;;9.50;5.15;;;10.90;99.90;;;;;;4912560;29;20032;-50
2021/12/31 11:03:08;;;;;;;10.32;6.10;;;10.90;99.90;;;;;;4910454;29;20044;-50
2021/12/31 11:05:34;;;;;;;6.53;4.47;;;10.90;99.90;;;;;;4912440;29;20020;-50
2021/12/31 11:08:03;;;;;;;2.47;2.03;;;10.90;99.90;;;;;;4912647;29;20035;-50
2021/12/31 11:10:35;;;;;;;16.13;5.03;;;10.90;99.90;;;;;;4912314;29;20028;-50
2021/12/31 11:13:13;;;;;;;10.30;5.03;;;10.90;99.90;;;;;;4911489;29;20195;-50
2021/12/31 11:15:41;;;;;;;8.13;4.97;;;10.90;99.90;;;;;;4926017;29;20032;-50
2021/12/31 11:18:08;;;;;;;4.78;3.35;;;10.90;99.90;;;;;;4932464;29;20359;-50
2021/12/31 11:20:34;;;;;;;6.32;3.60;;;11.00;99.90;;;;;;4929897;29;20074;-50
2021/12/31 11:23:00;;;;;;;3.72;2.80;;;11.00;99.90;;;;;;4929306;29;20047;-50
2021/12/31 11:25:29;;;;;;;3.88;2.85;;;11.10;99.90;;;;;;4919262;29;20046;-50
2021/12/31 11:27:57;;;;;;;4.07;2.65;;;11.10;99.90;;;;;;4941117;28;20029;-50
2021/12/31 11:30:31;;;;;;;3.33;1.77;;;11.10;99.90;;;;;;5009918;28;20026;-50
2021/12/31 11:33:08;;;;;;;4.82;2.53;;;11.10;99.90;;;;;;5007988;28;20040;-50
2021/12/31 11:35:40;;;;;;;1.30;0.90;;;11.20;99.90;;;;;;5001597;28;20109;-50
2021/12/31 11:38:12;;;;;;;1.58;1.23;;;11.20;99.90;;;;;;5003715;28;20270;-50
2021/12/31 11:40:50;;;;;;;2.92;1.75;;;11.20;99.90;;;;;;5001847;28;20037;-50
2021/12/31 11:43:26;;;;;;;1.55;1.45;;;11.20;99.90;;;;;;5003539;28;20053;-50
2021/12/31 11:48:51;;;;;;;2.95;2.10;;;11.20;99.90;;;;;;5000457;28;20454;-50
2021/12/31 11:51:20;;;;;;;1.23;0.70;;;11.20;99.90;;;;;;5000058;28;20038;-50
2021/12/31 11:54:01;;;;;;;2.75;2.15;;;11.20;99.90;;;;;;5000311;28;20041;-50
2021/12/31 11:56:47;;;;;;;4.47;2.03;;;11.20;99.90;;;;;;5000823;28;20027;-50
2021/12/31 11:59:13;;;;;;;4.65;2.55;;;11.20;99.90;;;;;;5004445;28;20038;-50
2021/12/31 12:01:52;;;;;;;2.88;2.20;;;11.20;99.90;;;;;;5001567;28;20045;-50
2021/12/31 12:04:23;;;;;;;2.33;1.83;;;11.20;99.90;;;;;;5004050;28;20496;-51
2021/12/31 12:07:01;;;;;;;1.58;1.48;;;11.20;99.90;;;;;;5002263;28;20023;-50
2021/12/31 12:09:36;;;;;;;3.22;2.08;;;11.20;99.90;;;;;;5003955;28;20058;-50
2021/12/31 12:12:03;;;;;;;4.90;2.10;;;11.30;99.90;;;;;;5000623;28;20453;-49
2021/12/31 12:14:48;;;;;;;5.18;1.80;;;11.30;99.90;;;;;;5005373;28;20038;-50
2021/12/31 12:17:16;;;;;;;7.50;1.52;;;11.30;99.90;;;;;;5008666;28;20029;-50
2021/12/31 12:19:50;;;;;;;3.50;2.15;;;11.30;99.90;;;;;;5009037;28;20041;-49
2021/12/31 12:22:40;;;;;;;4.32;2.92;;;11.30;99.90;;;;;;5004587;28;20261;-49
2021/12/31 12:25:23;;;;;;;7.68;4.50;;;11.30;99.90;;;;;;5000506;28;20033;-49
2021/12/31 12:28:12;;;;;;;24.85;10.18;;;11.30;99.90;;;;;;5003161;28;20089;-49
2021/12/31 12:30:44;;;;;;;50.65;20.55;;;11.30;99.90;;;;;;5004766;28;20443;-49
2021/12/31 12:35:38;;;;;;;4.03;3.55;;;11.40;99.90;;;;;;5003979;28;20057;-49
2021/12/31 12:38:11;;;;;;;6.22;3.10;;;11.40;99.90;;;;;;5003022;28;20030;-49
2021/12/31 12:40:54;;;;;;;7.72;3.70;;;11.40;99.90;;;;;;5003719;28;20093;-49
2021/12/31 12:43:25;;;;;;;10.00;4.78;;;11.40;99.90;;;;;;5002016;28;20084;-49
2021/12/31 12:45:52;;;;;;;8.50;4.30;;;11.40;99.90;;;;;;5004535;28;20032;-49
2021/12/31 12:48:32;;;;;;;16.17;8.38;;;11.40;99.90;;;;;;5001702;28;20044;-49
2021/12/31 12:50:59;;;;;;;6.10;3.22;;;11.40;99.90;;;;;;5002835;28;20028;-49
2021/12/31 12:53:27;;;;;;;13.40;6.05;;;11.40;99.90;;;;;;5005789;28;20026;-49
2021/12/31 12:56:13;;;;;;;24.10;8.45;;;11.50;99.90;;;;;;5004686;28;20022;-49
2021/12/31 12:58:41;;;;;;;35.90;18.33;;;11.40;99.90;;;;;;5002684;28;20087;-49
2021/12/31 13:01:07;;;;;;;97.30;44.72;;;11.50;99.90;;;;;;5003135;28;20538;-49